sensor_id;sensor_type;location;lat;lon;timestamp;P1;durP1;ratioP1;P2;durP2;ratioP2
75429;SDS011;64127;51.488;5.462;2024-01-16T00:00:52;3.20;;;1.90;;
75429;SDS011;64127;51.488;5.462;2024-01-16T00:03:24;3.13;;;2.10;;
75429;SDS011;64127;51.488;5.462;2024-01-16T00:05:57;2.50;;;2.10;;
75429;SDS011;64127;51.488;5.462;2024-01-16T00:08:29;2.80;;;1.90;;
75429;SDS011;64127;51.488;5.462;2024-01-16T00:11:02;2.17;;;1.97;;
75429;SDS011;64127;51.488;5.462;2024-01-16T00:13:35;2.70;;;2.20;;
75429;SDS011;64127;51.488;5.462;2024-01-16T00:16:07;2.63;;;2.10;;
75429;SDS011;64127;51.488;5.462;2024-01-16T00:18:39;3.83;;;2.20;;
75429;SDS011;64127;51.488;5.462;2024-01-16T00:21:11;3.70;;;2.37;;
75429;SDS011;64127;51.488;5.462;2024-01-16T00:23:43;2.80;;;2.50;;
75429;SDS011;64127;51.488;5.462;2024-01-16T00:26:22;2.80;;;2.47;;
75429;SDS011;64127;51.488;5.462;2024-01-16T00:28:54;3.53;;;2.50;;
75429;SDS011;64127;51.488;5.462;2024-01-16T00:31:26;4.33;;;2.90;;
75429;SDS011;64127;51.488;5.462;2024-01-16T00:33:58;4.23;;;3.00;;
75429;SDS011;64127;51.488;5.462;2024-01-16T00:36:30;4.60;;;3.20;;
75429;SDS011;64127;51.488;5.462;2024-01-16T00:39:02;3.97;;;3.00;;
75429;SDS011;64127;51.488;5.462;2024-01-16T00:41:34;4.53;;;3.03;;
75429;SDS011;64127;51.488;5.462;2024-01-16T00:44:06;4.27;;;2.93;;
75429;SDS011;64127;51.488;5.462;2024-01-16T00:46:39;4.77;;;3.00;;
75429;SDS011;64127;51.488;5.462;2024-01-16T00:49:11;3.57;;;2.80;;
75429;SDS011;64127;51.488;5.462;2024-01-16T00:51:43;3.70;;;2.57;;
75429;SDS011;64127;51.488;5.462;2024-01-16T00:54:15;4.13;;;2.90;;
75429;SDS011;64127;51.488;5.462;2024-01-16T00:56:47;3.53;;;2.60;;
75429;SDS011;64127;51.488;5.462;2024-01-16T00:59:19;4.23;;;2.50;;
75429;SDS011;64127;51.488;5.462;2024-01-16T01:01:52;2.87;;;2.40;;
75429;SDS011;64127;51.488;5.462;2024-01-16T01:04:24;2.53;;;2.10;;
75429;SDS011;64127;51.488;5.462;2024-01-16T01:06:56;4.23;;;2.57;;
75429;SDS011;64127;51.488;5.462;2024-01-16T01:09:28;3.67;;;2.40;;
75429;SDS011;64127;51.488;5.462;2024-01-16T01:12:00;6.53;;;3.13;;
75429;SDS011;64127;51.488;5.462;2024-01-16T01:14:32;4.37;;;2.50;;
75429;SDS011;64127;51.488;5.462;2024-01-16T01:17:05;5.37;;;2.80;;
75429;SDS011;64127;51.488;5.462;2024-01-16T01:19:37;3.53;;;2.53;;
75429;SDS011;64127;51.488;5.462;2024-01-16T01:22:10;4.83;;;2.77;;
75429;SDS011;64127;51.488;5.462;2024-01-16T01:24:42;2.97;;;2.67;;
75429;SDS011;64127;51.488;5.462;2024-01-16T01:27:14;4.17;;;2.40;;
75429;SDS011;64127;51.488;5.462;2024-01-16T01:29:46;3.20;;;2.60;;
75429;SDS011;64127;51.488;5.462;2024-01-16T01:32:18;4.43;;;2.70;;
75429;SDS011;64127;51.488;5.462;2024-01-16T01:34:50;3.90;;;3.23;;
75429;SDS011;64127;51.488;5.462;2024-01-16T01:37:22;4.70;;;2.63;;
75429;SDS011;64127;51.488;5.462;2024-01-16T01:39:54;3.83;;;2.47;;
75429;SDS011;64127;51.488;5.462;2024-01-16T01:42:26;4.37;;;2.60;;
75429;SDS011;64127;51.488;5.462;2024-01-16T01:44:58;3.43;;;2.30;;
75429;SDS011;64127;51.488;5.462;2024-01-16T01:47:30;3.37;;;2.23;;
75429;SDS011;64127;51.488;5.462;2024-01-16T01:50:05;6.40;;;2.30;;
75429;SDS011;64127;51.488;5.462;2024-01-16T01:52:40;5.20;;;2.43;;
75429;SDS011;64127;51.488;5.462;2024-01-16T01:55:14;4.10;;;2.37;;
75429;SDS011;64127;51.488;5.462;2024-01-16T01:57:47;3.53;;;2.10;;
75429;SDS011;64127;51.488;5.462;2024-01-16T02:00:19;3.63;;;2.30;;
75429;SDS011;64127;51.488;5.462;2024-01-16T02:02:51;3.10;;;2.30;;
75429;SDS011;64127;51.488;5.462;2024-01-16T02:05:24;5.77;;;2.33;;
75429;SDS011;64127;51.488;5.462;2024-01-16T02:07:56;3.43;;;2.17;;
75429;SDS011;64127;51.488;5.462;2024-01-16T02:10:28;3.33;;;2.17;;
75429;SDS011;64127;51.488;5.462;2024-01-16T02:13:00;3.13;;;1.80;;
75429;SDS011;64127;51.488;5.462;2024-01-16T02:15:32;3.97;;;2.30;;
75429;SDS011;64127;51.488;5.462;2024-01-16T02:18:04;2.90;;;2.03;;
75429;SDS011;64127;51.488;5.462;2024-01-16T02:20:37;3.73;;;2.17;;
75429;SDS011;64127;51.488;5.462;2024-01-16T02:23:09;4.70;;;2.20;;
75429;SDS011;64127;51.488;5.462;2024-01-16T02:25:44;3.13;;;1.87;;
75429;SDS011;64127;51.488;5.462;2024-01-16T02:28:16;3.63;;;2.10;;
75429;SDS011;64127;51.488;5.462;2024-01-16T02:30:48;2.43;;;1.90;;
75429;SDS011;64127;51.488;5.462;2024-01-16T02:33:21;3.37;;;2.40;;
75429;SDS011;64127;51.488;5.462;2024-01-16T02:35:53;3.60;;;2.27;;
75429;SDS011;64127;51.488;5.462;2024-01-16T02:38:25;3.00;;;2.30;;
75429;SDS011;64127;51.488;5.462;2024-01-16T02:40:57;3.73;;;2.27;;
75429;SDS011;64127;51.488;5.462;2024-01-16T02:43:29;2.80;;;2.10;;
75429;SDS011;64127;51.488;5.462;2024-01-16T02:46:01;2.63;;;2.03;;
75429;SDS011;64127;51.488;5.462;2024-01-16T02:48:33;4.10;;;2.67;;
75429;SDS011;64127;51.488;5.462;2024-01-16T02:51:05;2.83;;;2.13;;
75429;SDS011;64127;51.488;5.462;2024-01-16T02:53:37;3.50;;;2.20;;
75429;SDS011;64127;51.488;5.462;2024-01-16T02:56:09;3.90;;;2.10;;
75429;SDS011;64127;51.488;5.462;2024-01-16T02:58:41;5.23;;;2.60;;
75429;SDS011;64127;51.488;5.462;2024-01-16T03:01:13;3.23;;;2.07;;
75429;SDS011;64127;51.488;5.462;2024-01-16T03:03:47;3.23;;;2.20;;
75429;SDS011;64127;51.488;5.462;2024-01-16T03:06:22;3.67;;;2.27;;
75429;SDS011;64127;51.488;5.462;2024-01-16T03:08:56;3.20;;;2.20;;
75429;SDS011;64127;51.488;5.462;2024-01-16T03:11:28;5.60;;;2.07;;
75429;SDS011;64127;51.488;5.462;2024-01-16T03:14:04;4.27;;;2.43;;
75429;SDS011;64127;51.488;5.462;2024-01-16T03:16:37;3.20;;;1.90;;
75429;SDS011;64127;51.488;5.462;2024-01-16T03:19:09;3.70;;;1.90;;
75429;SDS011;64127;51.488;5.462;2024-01-16T03:21:41;4.03;;;2.30;;
75429;SDS011;64127;51.488;5.462;2024-01-16T03:24:14;5.63;;;2.43;;
75429;SDS011;64127;51.488;5.462;2024-01-16T03:26:46;5.57;;;2.40;;
75429;SDS011;64127;51.488;5.462;2024-01-16T03:29:18;4.70;;;2.07;;
75429;SDS011;64127;51.488;5.462;2024-01-16T03:31:50;3.43;;;1.90;;
75429;SDS011;64127;51.488;5.462;2024-01-16T03:34:23;3.67;;;2.50;;
75429;SDS011;64127;51.488;5.462;2024-01-16T03:36:55;3.70;;;2.23;;
75429;SDS011;64127;51.488;5.462;2024-01-16T03:39:27;4.20;;;2.07;;
75429;SDS011;64127;51.488;5.462;2024-01-16T03:41:59;3.03;;;2.60;;
75429;SDS011;64127;51.488;5.462;2024-01-16T03:44:31;6.20;;;2.60;;
75429;SDS011;64127;51.488;5.462;2024-01-16T03:47:03;4.10;;;3.60;;
75429;SDS011;64127;51.488;5.462;2024-01-16T03:49:35;6.30;;;4.50;;
75429;SDS011;64127;51.488;5.462;2024-01-16T03:52:08;6.97;;;4.67;;
75429;SDS011;64127;51.488;5.462;2024-01-16T03:54:40;8.17;;;5.50;;
75429;SDS011;64127;51.488;5.462;2024-01-16T03:57:12;7.00;;;5.87;;
75429;SDS011;64127;51.488;5.462;2024-01-16T03:59:44;10.37;;;6.10;;
75429;SDS011;64127;51.488;5.462;2024-01-16T04:02:16;9.10;;;6.40;;
75429;SDS011;64127;51.488;5.462;2024-01-16T04:04:48;9.83;;;6.70;;
75429;SDS011;64127;51.488;5.462;2024-01-16T04:07:22;8.70;;;6.57;;
75429;SDS011;64127;51.488;5.462;2024-01-16T04:09:56;10.07;;;6.67;;
75429;SDS011;64127;51.488;5.462;2024-01-16T04:12:28;9.63;;;6.57;;
75429;SDS011;64127;51.488;5.462;2024-01-16T04:15:00;9.17;;;6.83;;
75429;SDS011;64127;51.488;5.462;2024-01-16T04:17:32;9.10;;;6.53;;
75429;SDS011;64127;51.488;5.462;2024-01-16T04:20:04;8.10;;;6.57;;
75429;SDS011;64127;51.488;5.462;2024-01-16T04:22:38;9.90;;;6.67;;
75429;SDS011;64127;51.488;5.462;2024-01-16T04:25:10;8.73;;;6.87;;
75429;SDS011;64127;51.488;5.462;2024-01-16T04:27:42;12.90;;;6.53;;
75429;SDS011;64127;51.488;5.462;2024-01-16T04:30:14;10.03;;;6.03;;
75429;SDS011;64127;51.488;5.462;2024-01-16T04:32:46;10.17;;;6.50;;
75429;SDS011;64127;51.488;5.462;2024-01-16T04:35:19;9.97;;;6.60;;
75429;SDS011;64127;51.488;5.462;2024-01-16T04:37:51;8.30;;;5.90;;
75429;SDS011;64127;51.488;5.462;2024-01-16T04:40:23;9.33;;;6.03;;
75429;SDS011;64127;51.488;5.462;2024-01-16T04:42:55;9.97;;;6.03;;
75429;SDS011;64127;51.488;5.462;2024-01-16T04:45:27;10.00;;;5.90;;
75429;SDS011;64127;51.488;5.462;2024-01-16T04:47:59;9.93;;;6.20;;
75429;SDS011;64127;51.488;5.462;2024-01-16T04:50:31;11.63;;;6.20;;
75429;SDS011;64127;51.488;5.462;2024-01-16T04:53:03;9.40;;;5.70;;
75429;SDS011;64127;51.488;5.462;2024-01-16T04:55:36;9.17;;;5.80;;
75429;SDS011;64127;51.488;5.462;2024-01-16T04:58:08;10.30;;;5.83;;
75429;SDS011;64127;51.488;5.462;2024-01-16T05:00:41;12.07;;;6.20;;
75429;SDS011;64127;51.488;5.462;2024-01-16T05:03:13;9.90;;;5.63;;
75429;SDS011;64127;51.488;5.462;2024-01-16T05:05:45;11.47;;;5.43;;
75429;SDS011;64127;51.488;5.462;2024-01-16T05:08:17;10.27;;;5.70;;
75429;SDS011;64127;51.488;5.462;2024-01-16T05:10:49;6.93;;;4.97;;
75429;SDS011;64127;51.488;5.462;2024-01-16T05:13:21;10.97;;;5.93;;
75429;SDS011;64127;51.488;5.462;2024-01-16T05:15:53;10.10;;;5.70;;
75429;SDS011;64127;51.488;5.462;2024-01-16T05:18:25;9.77;;;6.00;;
75429;SDS011;64127;51.488;5.462;2024-01-16T05:20:58;9.97;;;5.40;;
75429;SDS011;64127;51.488;5.462;2024-01-16T05:23:31;8.27;;;4.97;;
75429;SDS011;64127;51.488;5.462;2024-01-16T05:26:03;8.00;;;5.10;;
75429;SDS011;64127;51.488;5.462;2024-01-16T05:28:35;9.40;;;4.87;;
75429;SDS011;64127;51.488;5.462;2024-01-16T05:31:07;11.47;;;5.10;;
75429;SDS011;64127;51.488;5.462;2024-01-16T05:33:39;9.77;;;5.30;;
75429;SDS011;64127;51.488;5.462;2024-01-16T05:36:12;8.70;;;4.70;;
75429;SDS011;64127;51.488;5.462;2024-01-16T05:38:44;11.33;;;5.40;;
75429;SDS011;64127;51.488;5.462;2024-01-16T05:41:16;8.03;;;4.93;;
75429;SDS011;64127;51.488;5.462;2024-01-16T05:43:48;9.63;;;5.07;;
75429;SDS011;64127;51.488;5.462;2024-01-16T05:46:20;11.90;;;5.10;;
75429;SDS011;64127;51.488;5.462;2024-01-16T05:48:52;8.50;;;4.50;;
75429;SDS011;64127;51.488;5.462;2024-01-16T05:51:27;9.50;;;5.20;;
75429;SDS011;64127;51.488;5.462;2024-01-16T05:54:00;8.13;;;5.10;;
75429;SDS011;64127;51.488;5.462;2024-01-16T05:56:32;6.67;;;4.20;;
75429;SDS011;64127;51.488;5.462;2024-01-16T05:59:05;8.10;;;4.60;;
75429;SDS011;64127;51.488;5.462;2024-01-16T06:01:38;7.27;;;4.80;;
75429;SDS011;64127;51.488;5.462;2024-01-16T06:04:10;8.60;;;4.77;;
75429;SDS011;64127;51.488;5.462;2024-01-16T06:06:45;8.17;;;4.33;;
75429;SDS011;64127;51.488;5.462;2024-01-16T06:09:19;10.63;;;4.83;;
75429;SDS011;64127;51.488;5.462;2024-01-16T06:11:51;7.73;;;4.57;;
75429;SDS011;64127;51.488;5.462;2024-01-16T06:14:23;8.43;;;4.63;;
75429;SDS011;64127;51.488;5.462;2024-01-16T06:16:55;5.53;;;4.20;;
75429;SDS011;64127;51.488;5.462;2024-01-16T06:19:27;8.00;;;4.60;;
75429;SDS011;64127;51.488;5.462;2024-01-16T06:21:59;8.67;;;4.33;;
75429;SDS011;64127;51.488;5.462;2024-01-16T06:24:31;7.77;;;4.40;;
75429;SDS011;64127;51.488;5.462;2024-01-16T06:27:08;7.63;;;4.63;;
75429;SDS011;64127;51.488;5.462;2024-01-16T06:29:40;6.67;;;3.97;;
75429;SDS011;64127;51.488;5.462;2024-01-16T06:32:12;9.83;;;4.33;;
75429;SDS011;64127;51.488;5.462;2024-01-16T06:34:44;7.80;;;4.00;;
75429;SDS011;64127;51.488;5.462;2024-01-16T06:37:16;6.27;;;4.40;;
75429;SDS011;64127;51.488;5.462;2024-01-16T06:39:48;13.17;;;4.40;;
75429;SDS011;64127;51.488;5.462;2024-01-16T06:42:20;8.73;;;4.23;;
75429;SDS011;64127;51.488;5.462;2024-01-16T06:44:52;9.67;;;4.80;;
75429;SDS011;64127;51.488;5.462;2024-01-16T06:47:24;7.33;;;4.43;;
75429;SDS011;64127;51.488;5.462;2024-01-16T06:49:56;6.30;;;4.00;;
75429;SDS011;64127;51.488;5.462;2024-01-16T06:52:28;8.23;;;4.20;;
75429;SDS011;64127;51.488;5.462;2024-01-16T06:55:00;4.63;;;3.90;;
75429;SDS011;64127;51.488;5.462;2024-01-16T06:57:32;8.77;;;4.50;;
75429;SDS011;64127;51.488;5.462;2024-01-16T07:00:05;5.90;;;4.10;;
75429;SDS011;64127;51.488;5.462;2024-01-16T07:02:38;7.30;;;4.43;;
75429;SDS011;64127;51.488;5.462;2024-01-16T07:05:11;6.50;;;4.27;;
75429;SDS011;64127;51.488;5.462;2024-01-16T07:07:44;6.70;;;4.30;;
75429;SDS011;64127;51.488;5.462;2024-01-16T07:10:16;6.03;;;3.97;;
75429;SDS011;64127;51.488;5.462;2024-01-16T07:12:53;8.30;;;4.50;;
75429;SDS011;64127;51.488;5.462;2024-01-16T07:15:26;6.30;;;4.80;;
75429;SDS011;64127;51.488;5.462;2024-01-16T07:17:58;7.03;;;4.23;;
75429;SDS011;64127;51.488;5.462;2024-01-16T07:20:30;9.13;;;4.33;;
75429;SDS011;64127;51.488;5.462;2024-01-16T07:23:03;5.37;;;3.70;;
75429;SDS011;64127;51.488;5.462;2024-01-16T07:25:36;6.13;;;3.83;;
75429;SDS011;64127;51.488;5.462;2024-01-16T07:28:08;9.43;;;5.50;;
75429;SDS011;64127;51.488;5.462;2024-01-16T07:30:40;6.30;;;4.20;;
75429;SDS011;64127;51.488;5.462;2024-01-16T07:33:12;6.33;;;4.10;;
75429;SDS011;64127;51.488;5.462;2024-01-16T07:35:44;6.90;;;3.90;;
75429;SDS011;64127;51.488;5.462;2024-01-16T07:38:19;6.27;;;4.10;;
75429;SDS011;64127;51.488;5.462;2024-01-16T07:40:51;6.87;;;4.10;;
75429;SDS011;64127;51.488;5.462;2024-01-16T07:43:23;9.80;;;4.10;;
75429;SDS011;64127;51.488;5.462;2024-01-16T07:45:56;9.27;;;4.10;;
75429;SDS011;64127;51.488;5.462;2024-01-16T07:48:28;6.83;;;4.03;;
75429;SDS011;64127;51.488;5.462;2024-01-16T07:51:01;8.27;;;4.60;;
75429;SDS011;64127;51.488;5.462;2024-01-16T07:53:33;5.53;;;3.87;;
75429;SDS011;64127;51.488;5.462;2024-01-16T07:56:05;5.87;;;4.13;;
75429;SDS011;64127;51.488;5.462;2024-01-16T07:58:37;5.83;;;3.83;;
75429;SDS011;64127;51.488;5.462;2024-01-16T08:01:09;6.10;;;4.17;;
75429;SDS011;64127;51.488;5.462;2024-01-16T08:03:41;7.13;;;4.00;;
75429;SDS011;64127;51.488;5.462;2024-01-16T08:06:13;7.80;;;4.57;;
75429;SDS011;64127;51.488;5.462;2024-01-16T08:08:46;7.50;;;4.23;;
75429;SDS011;64127;51.488;5.462;2024-01-16T08:11:18;8.47;;;4.33;;
75429;SDS011;64127;51.488;5.462;2024-01-16T08:13:50;8.43;;;4.83;;
75429;SDS011;64127;51.488;5.462;2024-01-16T08:16:22;7.27;;;4.30;;
75429;SDS011;64127;51.488;5.462;2024-01-16T08:18:55;9.63;;;4.53;;
75429;SDS011;64127;51.488;5.462;2024-01-16T08:21:27;6.53;;;3.93;;
75429;SDS011;64127;51.488;5.462;2024-01-16T08:23:59;6.20;;;4.73;;
75429;SDS011;64127;51.488;5.462;2024-01-16T08:26:31;7.47;;;4.20;;
75429;SDS011;64127;51.488;5.462;2024-01-16T08:29:03;6.97;;;4.17;;
75429;SDS011;64127;51.488;5.462;2024-01-16T08:31:36;6.13;;;4.20;;
75429;SDS011;64127;51.488;5.462;2024-01-16T08:34:08;9.20;;;4.80;;
75429;SDS011;64127;51.488;5.462;2024-01-16T08:36:41;6.73;;;4.70;;
75429;SDS011;64127;51.488;5.462;2024-01-16T08:39:13;7.33;;;4.90;;
75429;SDS011;64127;51.488;5.462;2024-01-16T08:41:45;7.53;;;4.43;;
75429;SDS011;64127;51.488;5.462;2024-01-16T08:44:17;7.77;;;4.70;;
75429;SDS011;64127;51.488;5.462;2024-01-16T08:46:49;8.40;;;4.50;;
75429;SDS011;64127;51.488;5.462;2024-01-16T08:49:21;10.37;;;4.33;;
75429;SDS011;64127;51.488;5.462;2024-01-16T08:51:53;5.93;;;4.67;;
75429;SDS011;64127;51.488;5.462;2024-01-16T08:54:25;6.70;;;4.37;;
75429;SDS011;64127;51.488;5.462;2024-01-16T08:56:57;6.50;;;4.20;;
75429;SDS011;64127;51.488;5.462;2024-01-16T08:59:29;5.73;;;4.80;;
75429;SDS011;64127;51.488;5.462;2024-01-16T09:02:02;7.77;;;4.20;;
75429;SDS011;64127;51.488;5.462;2024-01-16T09:04:34;8.00;;;4.50;;
75429;SDS011;64127;51.488;5.462;2024-01-16T09:07:07;6.63;;;4.10;;
75429;SDS011;64127;51.488;5.462;2024-01-16T09:09:40;7.67;;;4.60;;
75429;SDS011;64127;51.488;5.462;2024-01-16T09:12:13;5.83;;;4.50;;
75429;SDS011;64127;51.488;5.462;2024-01-16T09:14:45;6.30;;;4.17;;
75429;SDS011;64127;51.488;5.462;2024-01-16T09:17:17;6.77;;;4.60;;
75429;SDS011;64127;51.488;5.462;2024-01-16T09:19:49;7.30;;;4.27;;
75429;SDS011;64127;51.488;5.462;2024-01-16T09:22:21;8.03;;;4.50;;
75429;SDS011;64127;51.488;5.462;2024-01-16T09:24:53;6.83;;;4.27;;
75429;SDS011;64127;51.488;5.462;2024-01-16T09:27:25;6.30;;;4.30;;
75429;SDS011;64127;51.488;5.462;2024-01-16T09:29:57;7.63;;;4.27;;
75429;SDS011;64127;51.488;5.462;2024-01-16T09:32:29;6.30;;;4.43;;
75429;SDS011;64127;51.488;5.462;2024-01-16T09:35:02;7.33;;;4.60;;
75429;SDS011;64127;51.488;5.462;2024-01-16T09:37:35;7.60;;;4.83;;
75429;SDS011;64127;51.488;5.462;2024-01-16T09:40:08;8.20;;;4.83;;
75429;SDS011;64127;51.488;5.462;2024-01-16T09:42:41;5.90;;;4.67;;
75429;SDS011;64127;51.488;5.462;2024-01-16T09:45:13;6.93;;;4.53;;
75429;SDS011;64127;51.488;5.462;2024-01-16T09:47:51;6.33;;;4.53;;
75429;SDS011;64127;51.488;5.462;2024-01-16T09:50:24;5.57;;;4.67;;
75429;SDS011;64127;51.488;5.462;2024-01-16T09:52:57;6.87;;;4.53;;
75429;SDS011;64127;51.488;5.462;2024-01-16T09:55:30;9.53;;;5.07;;
75429;SDS011;64127;51.488;5.462;2024-01-16T09:58:02;6.43;;;4.33;;
75429;SDS011;64127;51.488;5.462;2024-01-16T10:00:43;7.00;;;4.63;;
75429;SDS011;64127;51.488;5.462;2024-01-16T10:03:15;7.37;;;4.73;;
75429;SDS011;64127;51.488;5.462;2024-01-16T10:05:49;6.83;;;4.60;;
75429;SDS011;64127;51.488;5.462;2024-01-16T10:08:21;10.70;;;5.00;;
75429;SDS011;64127;51.488;5.462;2024-01-16T10:10:53;7.77;;;4.60;;
75429;SDS011;64127;51.488;5.462;2024-01-16T10:13:25;6.23;;;4.53;;
75429;SDS011;64127;51.488;5.462;2024-01-16T10:15:58;6.73;;;4.40;;
75429;SDS011;64127;51.488;5.462;2024-01-16T10:18:30;6.67;;;4.40;;
75429;SDS011;64127;51.488;5.462;2024-01-16T10:21:02;6.63;;;4.40;;
75429;SDS011;64127;51.488;5.462;2024-01-16T10:23:35;7.23;;;4.60;;
75429;SDS011;64127;51.488;5.462;2024-01-16T10:26:13;5.97;;;4.10;;
75429;SDS011;64127;51.488;5.462;2024-01-16T10:28:49;5.97;;;4.27;;
75429;SDS011;64127;51.488;5.462;2024-01-16T10:31:25;6.73;;;4.20;;
75429;SDS011;64127;51.488;5.462;2024-01-16T10:34:02;5.43;;;3.90;;
75429;SDS011;64127;51.488;5.462;2024-01-16T10:36:52;7.37;;;4.13;;
75429;SDS011;64127;51.488;5.462;2024-01-16T10:39:35;7.60;;;4.30;;
75429;SDS011;64127;51.488;5.462;2024-01-16T10:42:14;7.17;;;4.30;;
75429;SDS011;64127;51.488;5.462;2024-01-16T10:44:55;6.70;;;4.30;;
75429;SDS011;64127;51.488;5.462;2024-01-16T10:47:27;5.93;;;4.20;;
75429;SDS011;64127;51.488;5.462;2024-01-16T10:50:00;8.20;;;4.13;;
75429;SDS011;64127;51.488;5.462;2024-01-16T10:52:33;6.17;;;4.30;;
75429;SDS011;64127;51.488;5.462;2024-01-16T10:55:06;5.97;;;4.00;;
75429;SDS011;64127;51.488;5.462;2024-01-16T10:57:40;7.87;;;4.10;;
75429;SDS011;64127;51.488;5.462;2024-01-16T11:00:13;7.00;;;4.00;;
75429;SDS011;64127;51.488;5.462;2024-01-16T11:03:00;6.33;;;4.23;;
75429;SDS011;64127;51.488;5.462;2024-01-16T11:05:39;5.33;;;4.20;;
75429;SDS011;64127;51.488;5.462;2024-01-16T11:08:12;7.00;;;4.30;;
75429;SDS011;64127;51.488;5.462;2024-01-16T11:10:48;6.77;;;4.40;;
75429;SDS011;64127;51.488;5.462;2024-01-16T11:13:21;7.67;;;4.17;;
75429;SDS011;64127;51.488;5.462;2024-01-16T11:15:55;7.00;;;4.50;;
75429;SDS011;64127;51.488;5.462;2024-01-16T11:18:31;4.90;;;3.80;;
75429;SDS011;64127;51.488;5.462;2024-01-16T11:21:14;4.60;;;3.67;;
75429;SDS011;64127;51.488;5.462;2024-01-16T11:23:49;5.57;;;4.10;;
75429;SDS011;64127;51.488;5.462;2024-01-16T11:26:34;5.43;;;3.50;;
75429;SDS011;64127;51.488;5.462;2024-01-16T11:32:03;8.27;;;4.30;;
75429;SDS011;64127;51.488;5.462;2024-01-16T11:34:56;7.37;;;4.17;;
75429;SDS011;64127;51.488;5.462;2024-01-16T11:37:30;5.83;;;4.10;;
75429;SDS011;64127;51.488;5.462;2024-01-16T11:42:52;7.27;;;4.37;;
75429;SDS011;64127;51.488;5.462;2024-01-16T11:48:08;6.27;;;4.67;;
75429;SDS011;64127;51.488;5.462;2024-01-16T11:50:45;5.47;;;4.20;;
75429;SDS011;64127;51.488;5.462;2024-01-16T11:59:42;5.73;;;4.00;;
75429;SDS011;64127;51.488;5.462;2024-01-16T12:05:24;4.97;;;4.20;;
75429;SDS011;64127;51.488;5.462;2024-01-16T12:07:57;7.40;;;4.83;;
75429;SDS011;64127;51.488;5.462;2024-01-16T12:10:29;7.90;;;4.50;;
75429;SDS011;64127;51.488;5.462;2024-01-16T12:13:01;5.07;;;4.33;;
75429;SDS011;64127;51.488;5.462;2024-01-16T12:15:36;5.43;;;4.33;;
75429;SDS011;64127;51.488;5.462;2024-01-16T12:18:08;6.47;;;4.50;;
75429;SDS011;64127;51.488;5.462;2024-01-16T12:20:56;7.10;;;4.43;;
75429;SDS011;64127;51.488;5.462;2024-01-16T12:23:30;5.87;;;4.53;;
75429;SDS011;64127;51.488;5.462;2024-01-16T12:26:02;6.90;;;4.50;;
75429;SDS011;64127;51.488;5.462;2024-01-16T12:28:35;5.53;;;4.33;;
75429;SDS011;64127;51.488;5.462;2024-01-16T12:31:07;6.80;;;4.33;;
75429;SDS011;64127;51.488;5.462;2024-01-16T12:33:39;5.77;;;4.13;;
75429;SDS011;64127;51.488;5.462;2024-01-16T12:36:19;5.83;;;4.57;;
75429;SDS011;64127;51.488;5.462;2024-01-16T12:38:53;6.50;;;4.10;;
75429;SDS011;64127;51.488;5.462;2024-01-16T12:41:28;6.20;;;4.53;;
75429;SDS011;64127;51.488;5.462;2024-01-16T12:44:13;5.93;;;4.30;;
75429;SDS011;64127;51.488;5.462;2024-01-16T12:46:54;5.70;;;4.27;;
75429;SDS011;64127;51.488;5.462;2024-01-16T12:49:28;4.90;;;3.80;;
75429;SDS011;64127;51.488;5.462;2024-01-16T12:55:00;5.07;;;4.17;;
75429;SDS011;64127;51.488;5.462;2024-01-16T12:57:36;6.67;;;4.17;;
75429;SDS011;64127;51.488;5.462;2024-01-16T13:00:20;5.63;;;4.00;;
75429;SDS011;64127;51.488;5.462;2024-01-16T13:02:54;7.43;;;4.17;;
75429;SDS011;64127;51.488;5.462;2024-01-16T13:05:30;5.57;;;4.20;;
75429;SDS011;64127;51.488;5.462;2024-01-16T13:08:03;5.43;;;4.20;;
75429;SDS011;64127;51.488;5.462;2024-01-16T13:10:35;7.70;;;3.70;;
75429;SDS011;64127;51.488;5.462;2024-01-16T13:13:15;6.90;;;4.17;;
75429;SDS011;64127;51.488;5.462;2024-01-16T13:15:49;5.83;;;3.80;;
75429;SDS011;64127;51.488;5.462;2024-01-16T13:18:22;5.00;;;3.93;;
75429;SDS011;64127;51.488;5.462;2024-01-16T13:20:56;5.20;;;3.70;;
75429;SDS011;64127;51.488;5.462;2024-01-16T13:23:30;6.73;;;4.30;;
75429;SDS011;64127;51.488;5.462;2024-01-16T13:26:03;7.43;;;4.50;;
75429;SDS011;64127;51.488;5.462;2024-01-16T13:28:35;8.20;;;4.30;;
75429;SDS011;64127;51.488;5.462;2024-01-16T13:31:07;4.57;;;3.90;;
75429;SDS011;64127;51.488;5.462;2024-01-16T13:33:39;5.50;;;4.37;;
75429;SDS011;64127;51.488;5.462;2024-01-16T13:36:12;6.47;;;4.00;;
75429;SDS011;64127;51.488;5.462;2024-01-16T13:38:44;6.13;;;4.10;;
75429;SDS011;64127;51.488;5.462;2024-01-16T13:41:16;5.73;;;3.83;;
75429;SDS011;64127;51.488;5.462;2024-01-16T13:43:48;6.47;;;4.40;;
75429;SDS011;64127;51.488;5.462;2024-01-16T13:46:21;6.83;;;4.13;;
75429;SDS011;64127;51.488;5.462;2024-01-16T13:49:13;6.10;;;4.23;;
75429;SDS011;64127;51.488;5.462;2024-01-16T13:51:45;7.00;;;4.13;;
75429;SDS011;64127;51.488;5.462;2024-01-16T13:54:17;6.53;;;3.90;;
75429;SDS011;64127;51.488;5.462;2024-01-16T13:56:49;4.87;;;4.03;;
75429;SDS011;64127;51.488;5.462;2024-01-16T13:59:36;4.63;;;3.80;;
75429;SDS011;64127;51.488;5.462;2024-01-16T14:02:10;6.17;;;3.83;;
75429;SDS011;64127;51.488;5.462;2024-01-16T14:04:42;5.53;;;3.83;;
75429;SDS011;64127;51.488;5.462;2024-01-16T14:07:14;5.33;;;4.27;;
75429;SDS011;64127;51.488;5.462;2024-01-16T14:09:47;6.73;;;4.43;;
75429;SDS011;64127;51.488;5.462;2024-01-16T14:12:19;5.53;;;3.90;;
75429;SDS011;64127;51.488;5.462;2024-01-16T14:14:52;5.97;;;3.80;;
75429;SDS011;64127;51.488;5.462;2024-01-16T14:17:24;7.87;;;3.90;;
75429;SDS011;64127;51.488;5.462;2024-01-16T14:19:57;6.90;;;4.40;;
75429;SDS011;64127;51.488;5.462;2024-01-16T14:22:30;8.63;;;4.37;;
75429;SDS011;64127;51.488;5.462;2024-01-16T14:25:02;5.57;;;4.17;;
75429;SDS011;64127;51.488;5.462;2024-01-16T14:27:42;4.97;;;3.83;;
75429;SDS011;64127;51.488;5.462;2024-01-16T14:30:15;7.07;;;4.00;;
75429;SDS011;64127;51.488;5.462;2024-01-16T14:32:47;5.37;;;4.20;;
75429;SDS011;64127;51.488;5.462;2024-01-16T14:35:20;5.23;;;3.87;;
75429;SDS011;64127;51.488;5.462;2024-01-16T14:37:52;6.97;;;4.03;;
75429;SDS011;64127;51.488;5.462;2024-01-16T14:40:25;6.77;;;3.80;;
75429;SDS011;64127;51.488;5.462;2024-01-16T14:42:57;7.40;;;4.37;;
75429;SDS011;64127;51.488;5.462;2024-01-16T14:45:30;6.57;;;3.77;;
75429;SDS011;64127;51.488;5.462;2024-01-16T14:48:02;6.37;;;4.50;;
75429;SDS011;64127;51.488;5.462;2024-01-16T14:50:36;5.60;;;4.17;;
75429;SDS011;64127;51.488;5.462;2024-01-16T14:53:08;5.77;;;4.10;;
75429;SDS011;64127;51.488;5.462;2024-01-16T14:55:40;5.50;;;3.87;;
75429;SDS011;64127;51.488;5.462;2024-01-16T14:58:12;7.90;;;4.50;;
75429;SDS011;64127;51.488;5.462;2024-01-16T15:00:44;4.10;;;3.67;;
75429;SDS011;64127;51.488;5.462;2024-01-16T15:03:20;7.27;;;4.70;;
75429;SDS011;64127;51.488;5.462;2024-01-16T15:05:52;7.27;;;3.90;;
75429;SDS011;64127;51.488;5.462;2024-01-16T15:08:26;5.87;;;3.90;;
75429;SDS011;64127;51.488;5.462;2024-01-16T15:10:59;5.57;;;4.13;;
75429;SDS011;64127;51.488;5.462;2024-01-16T15:13:31;5.60;;;3.90;;
75429;SDS011;64127;51.488;5.462;2024-01-16T15:16:03;5.57;;;3.97;;
75429;SDS011;64127;51.488;5.462;2024-01-16T15:18:35;7.00;;;4.20;;
75429;SDS011;64127;51.488;5.462;2024-01-16T15:21:08;5.80;;;4.47;;
75429;SDS011;64127;51.488;5.462;2024-01-16T15:23:40;5.13;;;4.03;;
75429;SDS011;64127;51.488;5.462;2024-01-16T15:26:12;4.93;;;4.07;;
75429;SDS011;64127;51.488;5.462;2024-01-16T15:28:50;7.33;;;4.20;;
75429;SDS011;64127;51.488;5.462;2024-01-16T15:31:22;7.97;;;3.90;;
75429;SDS011;64127;51.488;5.462;2024-01-16T15:33:54;6.80;;;4.13;;
75429;SDS011;64127;51.488;5.462;2024-01-16T15:36:26;7.27;;;4.00;;
75429;SDS011;64127;51.488;5.462;2024-01-16T15:38:58;5.53;;;4.20;;
75429;SDS011;64127;51.488;5.462;2024-01-16T15:41:32;5.23;;;3.60;;
75429;SDS011;64127;51.488;5.462;2024-01-16T15:44:04;5.47;;;4.03;;